BIL weather

Billings Logan International Airport
Billings, Montana, United States

Public forecast

Using degrees Fahrenheit for public forecast. Weather courtesy of forecast.io.

Current aviation weather report (METAR) for Billings Logan International Airport

Retrieved 2020/06/03 05:53 UTC (8 minutes ago):

KBIL 030553Z 20006KT 10SM FEW100 BKN220 19/08 A3001 RMK AO2 SLP138 T01940083 10256 20194 58002

Aviation forecast (TAF) for Billings Logan International Airport

Retrieved 2020/06/03 06:28 UTC (0 seconds ago):

TAF KBIL 030526Z 0306/0406 17006KT P6SM VCTS FEW080CB SCT170 BKN250 FM030700 24008KT P6SM VCSH FEW090 BKN190 FM032200 28013KT P6SM VCSH SCT090 BKN150 FM040300 34010KT P6SM FEW110 SCT220